sensor_id;sensor_type;location;lat;lon;timestamp;P1;durP1;ratioP1;P2;durP2;ratioP2
23684;SDS011;12020;51.384;6.908;2022-08-01T00:00:36;14.57;;;13.03;;
23684;SDS011;12020;51.384;6.908;2022-08-01T00:03:02;14.48;;;12.98;;
23684;SDS011;12020;51.384;6.908;2022-08-01T00:05:29;13.75;;;12.38;;
23684;SDS011;12020;51.384;6.908;2022-08-01T00:07:55;15.02;;;13.30;;
23684;SDS011;12020;51.384;6.908;2022-08-01T00:10:20;13.95;;;12.35;;
23684;SDS011;12020;51.384;6.908;2022-08-01T00:12:46;13.93;;;12.48;;
23684;SDS011;12020;51.384;6.908;2022-08-01T00:15:14;13.67;;;12.13;;
23684;SDS011;12020;51.384;6.908;2022-08-01T00:17:41;13.35;;;12.05;;
23684;SDS011;12020;51.384;6.908;2022-08-01T00:20:10;13.50;;;12.20;;
23684;SDS011;12020;51.384;6.908;2022-08-01T00:22:37;13.95;;;12.60;;
23684;SDS011;12020;51.384;6.908;2022-08-01T00:25:03;15.10;;;13.65;;
23684;SDS011;12020;51.384;6.908;2022-08-01T00:27:30;15.38;;;13.82;;
23684;SDS011;12020;51.384;6.908;2022-08-01T00:29:56;15.90;;;14.20;;
23684;SDS011;12020;51.384;6.908;2022-08-01T00:32:22;14.77;;;13.27;;
23684;SDS011;12020;51.384;6.908;2022-08-01T00:34:48;14.20;;;12.70;;
23684;SDS011;12020;51.384;6.908;2022-08-01T00:37:14;14.17;;;12.67;;
23684;SDS011;12020;51.384;6.908;2022-08-01T00:39:40;13.37;;;12.07;;
23684;SDS011;12020;51.384;6.908;2022-08-01T00:42:06;12.60;;;11.50;;
23684;SDS011;12020;51.384;6.908;2022-08-01T00:44:33;12.57;;;11.40;;
23684;SDS011;12020;51.384;6.908;2022-08-01T00:46:59;12.00;;;10.80;;
23684;SDS011;12020;51.384;6.908;2022-08-01T00:49:25;12.15;;;10.95;;
23684;SDS011;12020;51.384;6.908;2022-08-01T00:51:50;11.90;;;10.77;;
23684;SDS011;12020;51.384;6.908;2022-08-01T00:54:16;12.25;;;11.07;;
23684;SDS011;12020;51.384;6.908;2022-08-01T00:56:42;11.68;;;10.50;;
23684;SDS011;12020;51.384;6.908;2022-08-01T00:59:08;12.13;;;11.00;;
23684;SDS011;12020;51.384;6.908;2022-08-01T01:01:36;12.27;;;11.00;;
23684;SDS011;12020;51.384;6.908;2022-08-01T01:04:02;12.07;;;10.80;;
23684;SDS011;12020;51.384;6.908;2022-08-01T01:17:28;13.40;;;11.87;;
23684;SDS011;12020;51.384;6.908;2022-08-01T01:20:00;13.23;;;11.50;;
23684;SDS011;12020;51.384;6.908;2022-08-01T01:25:09;14.02;;;12.60;;
23684;SDS011;12020;51.384;6.908;2022-08-01T01:30:23;17.02;;;15.25;;
23684;SDS011;12020;51.384;6.908;2022-08-01T01:32:53;16.27;;;14.68;;
23684;SDS011;12020;51.384;6.908;2022-08-01T01:35:24;18.98;;;15.88;;
23684;SDS011;12020;51.384;6.908;2022-08-01T01:37:56;17.35;;;15.65;;
23684;SDS011;12020;51.384;6.908;2022-08-01T01:40:26;17.85;;;16.05;;
23684;SDS011;12020;51.384;6.908;2022-08-01T01:42:55;18.73;;;15.93;;
23684;SDS011;12020;51.384;6.908;2022-08-01T01:45:22;20.02;;;16.70;;
23684;SDS011;12020;51.384;6.908;2022-08-01T01:47:49;19.20;;;16.33;;
23684;SDS011;12020;51.384;6.908;2022-08-01T01:50:15;19.77;;;16.60;;
23684;SDS011;12020;51.384;6.908;2022-08-01T01:52:44;19.00;;;16.02;;
23684;SDS011;12020;51.384;6.908;2022-08-01T01:55:12;20.77;;;16.77;;
23684;SDS011;12020;51.384;6.908;2022-08-01T01:57:40;17.98;;;15.88;;
23684;SDS011;12020;51.384;6.908;2022-08-01T02:00:07;17.70;;;15.80;;
23684;SDS011;12020;51.384;6.908;2022-08-01T02:02:37;17.92;;;16.13;;
23684;SDS011;12020;51.384;6.908;2022-08-01T02:05:08;18.33;;;16.40;;
23684;SDS011;12020;51.384;6.908;2022-08-01T02:07:36;18.73;;;16.80;;
23684;SDS011;12020;51.384;6.908;2022-08-01T02:10:03;18.73;;;16.75;;
23684;SDS011;12020;51.384;6.908;2022-08-01T02:12:32;20.17;;;16.55;;
23684;SDS011;12020;51.384;6.908;2022-08-01T02:15:00;18.83;;;16.92;;
23684;SDS011;12020;51.384;6.908;2022-08-01T02:17:28;19.05;;;16.90;;
23684;SDS011;12020;51.384;6.908;2022-08-01T02:19:55;20.27;;;16.85;;
23684;SDS011;12020;51.384;6.908;2022-08-01T02:25:03;19.00;;;17.00;;
23684;SDS011;12020;51.384;6.908;2022-08-01T02:27:58;20.42;;;17.02;;
23684;SDS011;12020;51.384;6.908;2022-08-01T02:30:26;18.13;;;16.23;;
23684;SDS011;12020;51.384;6.908;2022-08-01T02:33:02;17.90;;;16.00;;
23684;SDS011;12020;51.384;6.908;2022-08-01T02:35:31;18.92;;;16.90;;
23684;SDS011;12020;51.384;6.908;2022-08-01T02:38:00;19.63;;;15.88;;
23684;SDS011;12020;51.384;6.908;2022-08-01T02:40:28;19.45;;;17.08;;
23684;SDS011;12020;51.384;6.908;2022-08-01T02:42:57;19.95;;;17.13;;
23684;SDS011;12020;51.384;6.908;2022-08-01T02:45:25;21.00;;;16.85;;
23684;SDS011;12020;51.384;6.908;2022-08-01T02:47:54;21.35;;;17.90;;
23684;SDS011;12020;51.384;6.908;2022-08-01T02:50:24;19.65;;;17.58;;
23684;SDS011;12020;51.384;6.908;2022-08-01T02:52:51;21.73;;;17.20;;
23684;SDS011;12020;51.384;6.908;2022-08-01T02:55:19;21.20;;;17.50;;
23684;SDS011;12020;51.384;6.908;2022-08-01T02:57:45;19.23;;;17.17;;
23684;SDS011;12020;51.384;6.908;2022-08-01T03:00:13;22.15;;;19.17;;
23684;SDS011;12020;51.384;6.908;2022-08-01T03:02:40;22.25;;;19.63;;
23684;SDS011;12020;51.384;6.908;2022-08-01T03:05:10;20.13;;;17.95;;
23684;SDS011;12020;51.384;6.908;2022-08-01T03:07:38;21.55;;;19.35;;
23684;SDS011;12020;51.384;6.908;2022-08-01T03:10:05;21.58;;;18.85;;
23684;SDS011;12020;51.384;6.908;2022-08-01T03:12:32;21.83;;;19.20;;
23684;SDS011;12020;51.384;6.908;2022-08-01T03:14:59;23.42;;;19.08;;
23684;SDS011;12020;51.384;6.908;2022-08-01T03:17:28;22.90;;;18.95;;
23684;SDS011;12020;51.384;6.908;2022-08-01T03:19:56;21.85;;;19.25;;
23684;SDS011;12020;51.384;6.908;2022-08-01T03:22:24;22.50;;;19.27;;
23684;SDS011;12020;51.384;6.908;2022-08-01T03:24:53;22.10;;;19.10;;
23684;SDS011;12020;51.384;6.908;2022-08-01T03:27:21;23.92;;;19.55;;
23684;SDS011;12020;51.384;6.908;2022-08-01T03:29:49;23.58;;;20.00;;
23684;SDS011;12020;51.384;6.908;2022-08-01T03:32:16;22.08;;;19.73;;
23684;SDS011;12020;51.384;6.908;2022-08-01T03:34:44;23.13;;;19.30;;
23684;SDS011;12020;51.384;6.908;2022-08-01T03:37:15;22.70;;;20.25;;
23684;SDS011;12020;51.384;6.908;2022-08-01T03:40:11;22.75;;;20.20;;
23684;SDS011;12020;51.384;6.908;2022-08-01T03:42:47;23.33;;;20.55;;
23684;SDS011;12020;51.384;6.908;2022-08-01T03:45:49;24.40;;;20.20;;
23684;SDS011;12020;51.384;6.908;2022-08-01T03:48:10;24.90;;;19.95;;
23684;SDS011;12020;51.384;6.908;2022-08-01T03:50:41;22.88;;;20.38;;
23684;SDS011;12020;51.384;6.908;2022-08-01T03:53:10;22.52;;;19.75;;
23684;SDS011;12020;51.384;6.908;2022-08-01T03:55:38;22.73;;;20.02;;
23684;SDS011;12020;51.384;6.908;2022-08-01T03:58:06;21.60;;;19.15;;
23684;SDS011;12020;51.384;6.908;2022-08-01T04:00:35;23.63;;;20.25;;
23684;SDS011;12020;51.384;6.908;2022-08-01T04:03:06;22.85;;;19.38;;
23684;SDS011;12020;51.384;6.908;2022-08-01T04:05:33;22.63;;;19.52;;
23684;SDS011;12020;51.384;6.908;2022-08-01T04:08:00;21.35;;;19.08;;
23684;SDS011;12020;51.384;6.908;2022-08-01T04:10:28;22.67;;;19.80;;
23684;SDS011;12020;51.384;6.908;2022-08-01T04:12:54;21.52;;;19.15;;
23684;SDS011;12020;51.384;6.908;2022-08-01T04:15:20;23.52;;;19.95;;
23684;SDS011;12020;51.384;6.908;2022-08-01T04:17:46;23.88;;;20.17;;
23684;SDS011;12020;51.384;6.908;2022-08-01T04:20:13;22.77;;;19.20;;
23684;SDS011;12020;51.384;6.908;2022-08-01T04:22:40;21.25;;;18.85;;
23684;SDS011;12020;51.384;6.908;2022-08-01T04:25:09;21.08;;;18.77;;
23684;SDS011;12020;51.384;6.908;2022-08-01T04:27:40;22.20;;;19.33;;
23684;SDS011;12020;51.384;6.908;2022-08-01T04:30:09;22.13;;;19.07;;
23684;SDS011;12020;51.384;6.908;2022-08-01T04:32:38;22.65;;;19.73;;
23684;SDS011;12020;51.384;6.908;2022-08-01T04:35:05;21.88;;;19.55;;
23684;SDS011;12020;51.384;6.908;2022-08-01T04:37:35;22.85;;;19.23;;
23684;SDS011;12020;51.384;6.908;2022-08-01T04:40:03;21.67;;;18.87;;
23684;SDS011;12020;51.384;6.908;2022-08-01T04:42:31;21.73;;;19.23;;
23684;SDS011;12020;51.384;6.908;2022-08-01T04:44:58;22.33;;;18.73;;
23684;SDS011;12020;51.384;6.908;2022-08-01T04:47:25;20.58;;;18.40;;
23684;SDS011;12020;51.384;6.908;2022-08-01T04:49:51;20.83;;;18.73;;
23684;SDS011;12020;51.384;6.908;2022-08-01T04:52:17;21.20;;;18.17;;
23684;SDS011;12020;51.384;6.908;2022-08-01T04:54:43;21.25;;;18.35;;
23684;SDS011;12020;51.384;6.908;2022-08-01T04:57:09;21.27;;;18.98;;
23684;SDS011;12020;51.384;6.908;2022-08-01T04:59:35;20.48;;;18.35;;
23684;SDS011;12020;51.384;6.908;2022-08-01T05:04:33;20.38;;;18.20;;
23684;SDS011;12020;51.384;6.908;2022-08-01T05:06:59;15.45;;;13.85;;
23684;SDS011;12020;51.384;6.908;2022-08-01T05:09:25;14.63;;;13.13;;
23684;SDS011;12020;51.384;6.908;2022-08-01T05:11:51;15.00;;;13.50;;
23684;SDS011;12020;51.384;6.908;2022-08-01T05:14:17;14.80;;;13.25;;
23684;SDS011;12020;51.384;6.908;2022-08-01T05:16:42;15.35;;;13.05;;
23684;SDS011;12020;51.384;6.908;2022-08-01T05:19:10;17.73;;;15.93;;
23684;SDS011;12020;51.384;6.908;2022-08-01T05:21:36;18.50;;;16.60;;
23684;SDS011;12020;51.384;6.908;2022-08-01T05:24:03;18.17;;;16.25;;
23684;SDS011;12020;51.384;6.908;2022-08-01T05:26:29;18.05;;;16.25;;
23684;SDS011;12020;51.384;6.908;2022-08-01T05:28:55;18.27;;;16.47;;
23684;SDS011;12020;51.384;6.908;2022-08-01T05:31:21;19.03;;;16.93;;
23684;SDS011;12020;51.384;6.908;2022-08-01T05:33:47;17.87;;;15.97;;
23684;SDS011;12020;51.384;6.908;2022-08-01T05:36:12;18.75;;;16.27;;
23684;SDS011;12020;51.384;6.908;2022-08-01T05:38:38;19.25;;;16.95;;
23684;SDS011;12020;51.384;6.908;2022-08-01T05:41:04;19.55;;;17.40;;
23684;SDS011;12020;51.384;6.908;2022-08-01T05:43:30;18.40;;;16.50;;
23684;SDS011;12020;51.384;6.908;2022-08-01T05:45:59;19.60;;;16.93;;
23684;SDS011;12020;51.384;6.908;2022-08-01T05:48:25;18.90;;;16.90;;
23684;SDS011;12020;51.384;6.908;2022-08-01T05:50:51;19.10;;;17.10;;
23684;SDS011;12020;51.384;6.908;2022-08-01T05:53:18;19.57;;;17.30;;
23684;SDS011;12020;51.384;6.908;2022-08-01T05:55:43;20.03;;;17.97;;
23684;SDS011;12020;51.384;6.908;2022-08-01T05:58:09;19.50;;;17.50;;
23684;SDS011;12020;51.384;6.908;2022-08-01T06:00:35;19.75;;;17.75;;
23684;SDS011;12020;51.384;6.908;2022-08-01T06:03:00;19.60;;;17.60;;
23684;SDS011;12020;51.384;6.908;2022-08-01T06:05:26;20.17;;;17.97;;
23684;SDS011;12020;51.384;6.908;2022-08-01T06:07:51;20.67;;;18.57;;
23684;SDS011;12020;51.384;6.908;2022-08-01T06:10:17;20.50;;;18.40;;
23684;SDS011;12020;51.384;6.908;2022-08-01T06:12:43;20.52;;;18.42;;
23684;SDS011;12020;51.384;6.908;2022-08-01T06:15:09;21.00;;;18.75;;
23684;SDS011;12020;51.384;6.908;2022-08-01T06:17:35;20.83;;;18.65;;
23684;SDS011;12020;51.384;6.908;2022-08-01T06:20:00;20.38;;;18.30;;
23684;SDS011;12020;51.384;6.908;2022-08-01T06:22:26;19.85;;;17.90;;
23684;SDS011;12020;51.384;6.908;2022-08-01T06:24:52;18.77;;;16.88;;
23684;SDS011;12020;51.384;6.908;2022-08-01T06:27:17;18.08;;;16.27;;
23684;SDS011;12020;51.384;6.908;2022-08-01T06:29:43;18.60;;;16.70;;
23684;SDS011;12020;51.384;6.908;2022-08-01T06:32:09;18.43;;;16.57;;
23684;SDS011;12020;51.384;6.908;2022-08-01T06:34:35;19.00;;;17.03;;
23684;SDS011;12020;51.384;6.908;2022-08-01T06:37:01;18.60;;;16.75;;
23684;SDS011;12020;51.384;6.908;2022-08-01T06:39:26;18.37;;;16.57;;
23684;SDS011;12020;51.384;6.908;2022-08-01T06:41:52;17.10;;;15.40;;
23684;SDS011;12020;51.384;6.908;2022-08-01T06:44:18;17.83;;;16.13;;
23684;SDS011;12020;51.384;6.908;2022-08-01T06:46:43;16.60;;;15.00;;
23684;SDS011;12020;51.384;6.908;2022-08-01T06:49:09;16.35;;;14.80;;
23684;SDS011;12020;51.384;6.908;2022-08-01T06:51:35;16.53;;;14.83;;
23684;SDS011;12020;51.384;6.908;2022-08-01T06:54:00;17.00;;;15.43;;
23684;SDS011;12020;51.384;6.908;2022-08-01T06:56:26;16.47;;;14.97;;
23684;SDS011;12020;51.384;6.908;2022-08-01T06:58:52;15.87;;;14.37;;
23684;SDS011;12020;51.384;6.908;2022-08-01T07:01:18;16.43;;;14.83;;
23684;SDS011;12020;51.384;6.908;2022-08-01T07:03:43;15.50;;;14.02;;
23684;SDS011;12020;51.384;6.908;2022-08-01T07:06:09;13.80;;;12.50;;
23684;SDS011;12020;51.384;6.908;2022-08-01T07:08:35;12.57;;;11.27;;
23684;SDS011;12020;51.384;6.908;2022-08-01T07:11:01;12.52;;;11.32;;
23684;SDS011;12020;51.384;6.908;2022-08-01T07:13:28;9.90;;;8.98;;
23684;SDS011;12020;51.384;6.908;2022-08-01T07:15:56;9.60;;;8.60;;
23684;SDS011;12020;51.384;6.908;2022-08-01T07:18:22;8.70;;;7.80;;
23684;SDS011;12020;51.384;6.908;2022-08-01T07:20:48;7.65;;;6.95;;
23684;SDS011;12020;51.384;6.908;2022-08-01T07:23:14;7.32;;;6.63;;
23684;SDS011;12020;51.384;6.908;2022-08-01T07:25:40;8.15;;;7.35;;
23684;SDS011;12020;51.384;6.908;2022-08-01T07:28:07;8.48;;;7.10;;
23684;SDS011;12020;51.384;6.908;2022-08-01T07:30:32;6.93;;;6.22;;
23684;SDS011;12020;51.384;6.908;2022-08-01T07:32:59;7.40;;;6.28;;
23684;SDS011;12020;51.384;6.908;2022-08-01T07:35:24;6.22;;;5.50;;
23684;SDS011;12020;51.384;6.908;2022-08-01T07:37:56;6.53;;;5.32;;
23684;SDS011;12020;51.384;6.908;2022-08-01T07:40:22;5.20;;;4.70;;
23684;SDS011;12020;51.384;6.908;2022-08-01T07:42:48;3.83;;;3.42;;
23684;SDS011;12020;51.384;6.908;2022-08-01T07:45:13;3.88;;;3.47;;
23684;SDS011;12020;51.384;6.908;2022-08-01T07:47:40;3.38;;;2.83;;
23684;SDS011;12020;51.384;6.908;2022-08-01T07:50:06;3.78;;;3.20;;
23684;SDS011;12020;51.384;6.908;2022-08-01T07:52:32;3.55;;;2.80;;
23684;SDS011;12020;51.384;6.908;2022-08-01T07:54:58;3.20;;;2.90;;
23684;SDS011;12020;51.384;6.908;2022-08-01T07:57:24;2.60;;;2.40;;
23684;SDS011;12020;51.384;6.908;2022-08-01T07:59:50;2.58;;;2.20;;
23684;SDS011;12020;51.384;6.908;2022-08-01T08:02:16;2.55;;;1.90;;
23684;SDS011;12020;51.384;6.908;2022-08-01T08:04:41;1.80;;;1.20;;
23684;SDS011;12020;51.384;6.908;2022-08-01T08:07:08;3.40;;;1.90;;
23684;SDS011;12020;51.384;6.908;2022-08-01T08:09:33;2.03;;;1.85;;
23684;SDS011;12020;51.384;6.908;2022-08-01T08:11:59;3.25;;;2.38;;
23684;SDS011;12020;51.384;6.908;2022-08-01T08:14:25;2.92;;;2.50;;
23684;SDS011;12020;51.384;6.908;2022-08-01T08:16:52;2.60;;;2.35;;
23684;SDS011;12020;51.384;6.908;2022-08-01T08:19:17;3.43;;;3.13;;
23684;SDS011;12020;51.384;6.908;2022-08-01T08:21:44;3.70;;;3.40;;
23684;SDS011;12020;51.384;6.908;2022-08-01T08:24:10;3.35;;;2.97;;
23684;SDS011;12020;51.384;6.908;2022-08-01T08:26:45;2.95;;;2.55;;
23684;SDS011;12020;51.384;6.908;2022-08-01T08:29:15;3.90;;;3.22;;
23684;SDS011;12020;51.384;6.908;2022-08-01T08:31:41;3.53;;;3.23;;
23684;SDS011;12020;51.384;6.908;2022-08-01T08:34:07;5.90;;;3.60;;
23684;SDS011;12020;51.384;6.908;2022-08-01T08:36:33;4.47;;;4.07;;
23684;SDS011;12020;51.384;6.908;2022-08-01T08:39:00;4.90;;;4.50;;
23684;SDS011;12020;51.384;6.908;2022-08-01T08:41:26;6.60;;;6.10;;
23684;SDS011;12020;51.384;6.908;2022-08-01T08:43:52;5.72;;;5.20;;
23684;SDS011;12020;51.384;6.908;2022-08-01T08:46:18;4.75;;;4.35;;
23684;SDS011;12020;51.384;6.908;2022-08-01T08:48:45;4.20;;;3.80;;
23684;SDS011;12020;51.384;6.908;2022-08-01T08:51:11;4.43;;;4.05;;
23684;SDS011;12020;51.384;6.908;2022-08-01T08:53:38;4.07;;;3.67;;
23684;SDS011;12020;51.384;6.908;2022-08-01T08:56:10;3.15;;;2.85;;
23684;SDS011;12020;51.384;6.908;2022-08-01T08:58:38;3.13;;;2.50;;
23684;SDS011;12020;51.384;6.908;2022-08-01T09:01:11;2.50;;;2.28;;
23684;SDS011;12020;51.384;6.908;2022-08-01T09:03:37;3.53;;;2.10;;
23684;SDS011;12020;51.384;6.908;2022-08-01T09:06:04;2.08;;;1.75;;
23684;SDS011;12020;51.384;6.908;2022-08-01T09:08:30;2.80;;;2.05;;
23684;SDS011;12020;51.384;6.908;2022-08-01T09:10:59;2.67;;;1.88;;
23684;SDS011;12020;51.384;6.908;2022-08-01T09:13:24;1.85;;;1.70;;
23684;SDS011;12020;51.384;6.908;2022-08-01T09:15:52;1.98;;;1.77;;
23684;SDS011;12020;51.384;6.908;2022-08-01T09:18:28;1.60;;;1.50;;
23684;SDS011;12020;51.384;6.908;2022-08-01T09:21:12;1.70;;;1.58;;
23684;SDS011;12020;51.384;6.908;2022-08-01T09:23:42;2.37;;;1.70;;
23684;SDS011;12020;51.384;6.908;2022-08-01T09:26:49;3.38;;;2.10;;
23684;SDS011;12020;51.384;6.908;2022-08-01T09:29:17;2.50;;;1.73;;
23684;SDS011;12020;51.384;6.908;2022-08-01T09:31:45;2.10;;;1.90;;
23684;SDS011;12020;51.384;6.908;2022-08-01T09:34:12;2.33;;;1.73;;
23684;SDS011;12020;51.384;6.908;2022-08-01T09:36:49;1.92;;;1.60;;
23684;SDS011;12020;51.384;6.908;2022-08-01T09:39:26;1.80;;;1.40;;
23684;SDS011;12020;51.384;6.908;2022-08-01T09:41:56;1.83;;;1.73;;
23684;SDS011;12020;51.384;6.908;2022-08-01T09:44:36;2.70;;;1.75;;
23684;SDS011;12020;51.384;6.908;2022-08-01T09:47:02;1.80;;;1.70;;
23684;SDS011;12020;51.384;6.908;2022-08-01T09:49:29;2.37;;;1.80;;
23684;SDS011;12020;51.384;6.908;2022-08-01T09:51:59;2.10;;;1.83;;
23684;SDS011;12020;51.384;6.908;2022-08-01T09:54:43;2.10;;;1.83;;
23684;SDS011;12020;51.384;6.908;2022-08-01T09:57:17;1.98;;;1.77;;
23684;SDS011;12020;51.384;6.908;2022-08-01T09:59:45;2.30;;;1.92;;
23684;SDS011;12020;51.384;6.908;2022-08-01T10:02:14;4.45;;;1.90;;
23684;SDS011;12020;51.384;6.908;2022-08-01T10:04:52;2.08;;;1.83;;
23684;SDS011;12020;51.384;6.908;2022-08-01T10:07:20;2.23;;;1.73;;
23684;SDS011;12020;51.384;6.908;2022-08-01T10:09:47;2.67;;;2.22;;
23684;SDS011;12020;51.384;6.908;2022-08-01T10:12:17;2.30;;;2.10;;
23684;SDS011;12020;51.384;6.908;2022-08-01T10:14:45;2.20;;;2.00;;
23684;SDS011;12020;51.384;6.908;2022-08-01T10:17:15;3.25;;;2.50;;
23684;SDS011;12020;51.384;6.908;2022-08-01T10:19:43;2.70;;;2.10;;
23684;SDS011;12020;51.384;6.908;2022-08-01T10:22:10;2.30;;;2.03;;
23684;SDS011;12020;51.384;6.908;2022-08-01T10:24:39;2.53;;;2.08;;
23684;SDS011;12020;51.384;6.908;2022-08-01T10:27:07;2.33;;;2.17;;
23684;SDS011;12020;51.384;6.908;2022-08-01T10:29:36;2.97;;;2.00;;
23684;SDS011;12020;51.384;6.908;2022-08-01T10:32:08;1.63;;;1.50;;
23684;SDS011;12020;51.384;6.908;2022-08-01T10:34:35;1.40;;;1.30;;
23684;SDS011;12020;51.384;6.908;2022-08-01T10:37:03;1.50;;;1.40;;
23684;SDS011;12020;51.384;6.908;2022-08-01T10:39:30;1.70;;;1.60;;
23684;SDS011;12020;51.384;6.908;2022-08-01T10:41:59;1.97;;;1.77;;
23684;SDS011;12020;51.384;6.908;2022-08-01T10:44:27;1.23;;;1.13;;
23684;SDS011;12020;51.384;6.908;2022-08-01T10:46:59;1.40;;;1.30;;
23684;SDS011;12020;51.384;6.908;2022-08-01T10:49:36;1.70;;;1.60;;
23684;SDS011;12020;51.384;6.908;2022-08-01T10:52:07;1.80;;;1.70;;
23684;SDS011;12020;51.384;6.908;2022-08-01T10:54:38;2.33;;;1.80;;
23684;SDS011;12020;51.384;6.908;2022-08-01T10:57:05;1.60;;;1.50;;
23684;SDS011;12020;51.384;6.908;2022-08-01T10:59:32;2.07;;;1.87;;
23684;SDS011;12020;51.384;6.908;2022-08-01T11:02:02;3.37;;;2.20;;
23684;SDS011;12020;51.384;6.908;2022-08-01T11:04:54;2.07;;;1.80;;
23684;SDS011;12020;51.384;6.908;2022-08-01T11:08:21;2.47;;;2.27;;
